createdAt,value
2022-08-09T00:00:04.390Z,2.13
2022-08-09T00:02:33.780Z,2.00
2022-08-09T00:06:15.383Z,2.60
2022-08-09T00:07:49.644Z,2.30
2022-08-09T00:10:24.344Z,1.90
2022-08-09T00:12:53.791Z,2.30
2022-08-09T00:15:26.456Z,2.20
2022-08-09T00:18:04.667Z,2.00
2022-08-09T00:20:37.621Z,1.85
2022-08-09T00:23:58.146Z,2.00
2022-08-09T00:25:57.364Z,1.90
2022-08-09T00:28:27.318Z,2.13
2022-08-09T00:30:56.632Z,2.40
2022-08-09T00:33:48.971Z,1.98
2022-08-09T00:36:11.829Z,2.28
2022-08-09T00:38:41.584Z,2.00
2022-08-09T00:41:09.576Z,1.90
2022-08-09T00:44:10.126Z,1.92
2022-08-09T00:46:57.871Z,1.90
2022-08-09T00:49:33.123Z,2.08
2022-08-09T00:52:05.211Z,2.05
2022-08-09T00:54:36.133Z,1.92
2022-08-09T00:57:10.497Z,2.08
2022-08-09T00:59:41.333Z,2.00
2022-08-09T01:02:16.363Z,2.05
2022-08-09T01:04:50.054Z,2.10
2022-08-09T01:07:37.980Z,2.05
2022-08-09T01:10:14.500Z,2.17
2022-08-09T01:12:44.133Z,1.88
2022-08-09T01:15:16.971Z,2.10
2022-08-09T01:17:47.087Z,1.95
2022-08-09T01:20:20.195Z,2.17
2022-08-09T01:24:01.868Z,2.38
2022-08-09T01:26:07.875Z,2.22
2022-08-09T01:28:38.734Z,2.05
2022-08-09T01:31:07.130Z,2.00
2022-08-09T01:33:38.087Z,2.08
2022-08-09T01:36:08.135Z,2.00
2022-08-09T01:38:38.490Z,1.90
2022-08-09T01:41:10.316Z,2.13
2022-08-09T01:43:42.248Z,2.15
2022-08-09T01:46:25.266Z,2.03
2022-08-09T01:48:54.625Z,2.00
2022-08-09T01:51:23.552Z,2.08
2022-08-09T01:53:58.008Z,2.08
2022-08-09T01:56:28.043Z,1.70
2022-08-09T01:58:57.598Z,2.10
2022-08-09T02:01:58.511Z,2.08
2022-08-09T02:04:15.948Z,2.17
2022-08-09T02:07:02.006Z,2.08
2022-08-09T02:09:42.145Z,2.10
2022-08-09T02:12:13.378Z,2.05
2022-08-09T02:14:51.571Z,2.30
2022-08-09T02:18:01.066Z,2.55
2022-08-09T02:20:08.379Z,1.90
2022-08-09T02:22:38.126Z,2.03
2022-08-09T02:25:11.040Z,2.00
2022-08-09T02:28:00.635Z,2.03
2022-08-09T02:30:36.572Z,2.17
2022-08-09T02:33:07.775Z,2.10
2022-08-09T02:36:01.588Z,2.40
2022-08-09T02:38:32.221Z,2.40
2022-08-09T02:41:04.285Z,2.15
2022-08-09T02:43:42.571Z,2.22
2022-08-09T02:46:23.843Z,2.08
2022-08-09T02:48:52.152Z,2.22
2022-08-09T02:51:22.555Z,2.15
2022-08-09T02:54:01.190Z,2.20
2022-08-09T02:56:31.587Z,2.22
2022-08-09T02:58:59.908Z,2.30
2022-08-09T03:01:58.729Z,1.83
2022-08-09T03:04:19.625Z,2.30
2022-08-09T03:06:48.654Z,2.22
2022-08-09T03:09:17.320Z,2.33
2022-08-09T03:12:09.897Z,2.10
2022-08-09T03:14:33.915Z,2.40
2022-08-09T03:19:59.685Z,1.83
2022-08-09T03:22:25.489Z,2.30
2022-08-09T03:25:16.183Z,2.10
2022-08-09T03:27:48.314Z,1.80
2022-08-09T03:30:30.145Z,2.10
2022-08-09T03:33:13.131Z,2.33
2022-08-09T03:36:13.715Z,2.00
2022-08-09T03:38:37.136Z,2.28
2022-08-09T03:41:05.061Z,2.38
2022-08-09T03:43:33.296Z,2.15
2022-08-09T03:46:03.884Z,2.30
2022-08-09T03:48:51.178Z,2.10
2022-08-09T03:51:56.727Z,2.28
2022-08-09T03:54:11.096Z,2.13
2022-08-09T03:56:39.145Z,2.03
2022-08-09T03:59:17.069Z,2.38
2022-08-09T04:01:50.041Z,2.22
2022-08-09T04:04:19.137Z,2.50
2022-08-09T04:06:49.357Z,2.13
2022-08-09T04:09:41.811Z,2.60
2022-08-09T04:12:30.728Z,2.20
2022-08-09T04:15:00.839Z,2.40
2022-08-09T04:17:29.940Z,2.35
2022-08-09T04:19:58.876Z,2.10
2022-08-09T04:22:31.873Z,2.20
2022-08-09T04:24:59.900Z,2.17
2022-08-09T04:27:29.189Z,2.40
2022-08-09T04:29:56.751Z,2.00
2022-08-09T04:32:31.685Z,2.38
2022-08-09T04:35:05.072Z,2.40
2022-08-09T04:37:42.158Z,2.70
2022-08-09T04:40:28.581Z,2.45
2022-08-09T04:43:01.273Z,2.08
2022-08-09T04:45:30.763Z,2.30
2022-08-09T04:48:03.163Z,2.50
2022-08-09T04:50:35.085Z,2.30
2022-08-09T04:53:13.233Z,2.42
2022-08-09T04:55:57.523Z,2.60
2022-08-09T04:58:26.993Z,2.28
2022-08-09T05:00:55.238Z,2.15
2022-08-09T05:03:41.201Z,2.33
2022-08-09T05:06:11.259Z,2.42
2022-08-09T05:08:43.939Z,2.60
2022-08-09T05:11:15.498Z,2.40
2022-08-09T05:13:43.303Z,2.78
2022-08-09T05:16:11.201Z,2.10
2022-08-09T05:18:58.079Z,2.33
2022-08-09T05:21:30.443Z,2.17
2022-08-09T05:24:06.660Z,2.15
2022-08-09T05:29:17.684Z,2.47
2022-08-09T05:31:56.745Z,2.33
2022-08-09T05:34:30.044Z,2.45
2022-08-09T05:37:01.839Z,1.90
2022-08-09T05:39:36.499Z,2.25
2022-08-09T05:42:17.273Z,2.08
2022-08-09T05:44:50.811Z,2.20
2022-08-09T05:47:18.809Z,2.63
2022-08-09T05:50:26.693Z,2.47
2022-08-09T05:52:33.994Z,2.47
2022-08-09T05:55:07.152Z,2.72
2022-08-09T05:57:50.392Z,2.35
2022-08-09T06:00:19.211Z,2.30
2022-08-09T06:02:47.124Z,2.30
2022-08-09T06:05:14.795Z,2.40
2022-08-09T06:07:43.771Z,2.13
2022-08-09T06:10:18.498Z,2.42
2022-08-09T06:12:57.780Z,2.65
2022-08-09T06:15:30.910Z,2.47
2022-08-09T06:17:59.259Z,2.65
2022-08-09T06:20:27.236Z,2.50
2022-08-09T06:22:57.919Z,2.80
2022-08-09T06:25:27.279Z,2.70
2022-08-09T06:27:54.949Z,2.28
2022-08-09T06:30:22.542Z,2.50
2022-08-09T06:33:00.609Z,2.60
2022-08-09T06:35:57.826Z,2.30
2022-08-09T06:38:32.225Z,2.50
2022-08-09T06:41:18.539Z,2.30
2022-08-09T06:43:46.991Z,2.25
2022-08-09T06:46:40.269Z,2.33
2022-08-09T06:49:02.332Z,2.40
2022-08-09T06:51:29.863Z,2.28
2022-08-09T06:54:00.987Z,2.67
2022-08-09T06:56:30.614Z,2.20
2022-08-09T07:00:49.913Z,3.15
2022-08-09T07:01:54.166Z,2.00
2022-08-09T07:04:27.301Z,2.08
2022-08-09T07:07:00.474Z,2.40
2022-08-09T07:09:56.469Z,2.15
2022-08-09T07:12:18.375Z,2.45
2022-08-09T07:14:51.044Z,2.10
2022-08-09T07:17:19.967Z,2.50
2022-08-09T07:19:47.969Z,2.30
2022-08-09T07:22:18.710Z,2.45
2022-08-09T07:25:05.153Z,2.08
2022-08-09T07:27:43.052Z,1.80
2022-08-09T07:30:21.771Z,2.35
2022-08-09T07:32:52.780Z,2.20
2022-08-09T07:35:22.275Z,2.40
2022-08-09T07:37:50.577Z,2.20
2022-08-09T07:40:20.599Z,2.00
2022-08-09T07:42:56.853Z,2.00
2022-08-09T07:45:37.301Z,2.17
2022-08-09T07:48:07.274Z,2.10
2022-08-09T07:50:36.901Z,2.40
2022-08-09T07:53:05.108Z,2.45
2022-08-09T07:55:41.492Z,2.72
2022-08-09T07:58:26.860Z,2.42
2022-08-09T08:00:58.650Z,2.20
2022-08-09T08:03:36.746Z,2.10
2022-08-09T08:06:04.734Z,2.10
2022-08-09T08:09:00.214Z,2.30
2022-08-09T08:12:09.641Z,2.00
2022-08-09T08:14:08.920Z,1.70
2022-08-09T08:16:36.613Z,2.10
2022-08-09T08:19:07.280Z,1.98
2022-08-09T08:21:39.732Z,1.83
2022-08-09T08:24:12.077Z,2.35
2022-08-09T08:26:56.108Z,2.42
2022-08-09T08:29:27.681Z,1.80
2022-08-09T08:32:03.374Z,2.08
2022-08-09T08:34:33.609Z,1.45
2022-08-09T08:37:02.484Z,1.67
2022-08-09T08:39:38.213Z,1.90
2022-08-09T08:42:11.415Z,1.63
2022-08-09T08:44:42.295Z,2.00
2022-08-09T08:47:12.526Z,2.10
2022-08-09T08:49:47.738Z,1.80
2022-08-09T08:52:41.479Z,1.80
2022-08-09T08:55:05.698Z,1.98
2022-08-09T08:57:35.490Z,1.73
2022-08-09T09:00:12.649Z,1.70
2022-08-09T09:02:50.120Z,1.50
2022-08-09T09:05:26.324Z,1.70
2022-08-09T09:08:02.440Z,1.63
2022-08-09T09:10:30.447Z,2.60
2022-08-09T09:12:59.177Z,1.50
2022-08-09T09:15:38.355Z,1.60
2022-08-09T09:18:05.911Z,1.65
2022-08-09T09:20:38.680Z,1.60
2022-08-09T09:23:06.203Z,1.65
2022-08-09T09:26:02.451Z,1.67
2022-08-09T09:29:01.922Z,1.95
2022-08-09T09:31:17.217Z,1.80
2022-08-09T09:34:11.054Z,1.70
2022-08-09T09:36:51.127Z,1.50
2022-08-09T09:39:23.255Z,1.88
2022-08-09T09:41:51.473Z,1.85
2022-08-09T09:44:27.993Z,1.80
2022-08-09T09:47:05.251Z,1.90
2022-08-09T09:50:06.745Z,1.38
2022-08-09T09:52:36.450Z,1.63
2022-08-09T09:55:16.320Z,1.42
2022-08-09T09:58:03.460Z,1.40
2022-08-09T10:00:33.803Z,1.50
2022-08-09T10:03:11.473Z,1.70
2022-08-09T10:06:03.964Z,1.83
2022-08-09T10:08:32.568Z,2.10
2022-08-09T10:12:00.614Z,1.52
2022-08-09T10:14:07.077Z,1.55
2022-08-09T10:16:57.133Z,1.55
2022-08-09T10:19:35.304Z,1.48
2022-08-09T10:22:03.633Z,1.35
2022-08-09T10:24:36.111Z,1.77
2022-08-09T10:27:10.057Z,1.52
2022-08-09T10:30:27.250Z,1.88
2022-08-09T10:32:39.997Z,1.70
2022-08-09T10:35:13.249Z,1.50
2022-08-09T10:37:42.078Z,1.80
2022-08-09T10:40:11.945Z,1.55
2022-08-09T10:42:57.619Z,1.80
2022-08-09T10:45:31.980Z,1.70
2022-08-09T10:48:20.189Z,1.88
2022-08-09T10:51:11.900Z,1.80
2022-08-09T10:53:54.367Z,1.67
2022-08-09T10:56:23.961Z,1.60
2022-08-09T10:58:51.916Z,1.48
2022-08-09T11:03:11.243Z,1.55
2022-08-09T11:04:31.630Z,2.10
2022-08-09T11:07:18.735Z,1.65
2022-08-09T11:12:20.179Z,1.50
2022-08-09T11:14:51.351Z,1.52
2022-08-09T11:17:53.252Z,1.80
2022-08-09T11:20:41.508Z,1.50
2022-08-09T11:23:10.934Z,1.38
2022-08-09T11:25:49.388Z,1.55
2022-08-09T11:28:34.628Z,1.38
2022-08-09T11:31:03.444Z,2.15
2022-08-09T11:33:41.870Z,1.88
2022-08-09T11:36:11.729Z,1.58
2022-08-09T11:39:02.068Z,1.65
2022-08-09T11:41:38.250Z,1.60
2022-08-09T11:44:09.148Z,1.65
2022-08-09T11:46:52.440Z,1.52
2022-08-09T11:49:28.261Z,1.58
2022-08-09T11:53:00.869Z,1.63
2022-08-09T11:55:14.115Z,1.35
2022-08-09T11:58:00.863Z,1.70
2022-08-09T12:00:31.779Z,1.50
2022-08-09T12:03:50.225Z,1.60
2022-08-09T12:05:48.895Z,1.52
2022-08-09T12:08:21.584Z,1.52
2022-08-09T12:10:53.030Z,1.27
2022-08-09T12:14:07.427Z,1.67
2022-08-09T12:16:37.473Z,1.92
2022-08-09T12:19:08.619Z,1.52
2022-08-09T12:21:39.137Z,1.60
2022-08-09T12:24:20.611Z,1.65
2022-08-09T12:28:59.903Z,1.60
2022-08-09T12:29:43.819Z,1.50
2022-08-09T12:32:25.972Z,1.50
2022-08-09T12:34:59.426Z,1.33
2022-08-09T12:37:44.032Z,1.60
2022-08-09T12:40:12.617Z,1.33
2022-08-09T12:42:44.168Z,1.67
2022-08-09T12:45:32.251Z,1.70
2022-08-09T12:48:01.049Z,1.58
2022-08-09T12:53:09.266Z,1.58
2022-08-09T12:56:11.449Z,1.63
2022-08-09T12:58:32.091Z,1.50
2022-08-09T13:01:04.506Z,2.13
2022-08-09T13:03:53.074Z,1.52
2022-08-09T13:06:34.205Z,1.73
2022-08-09T13:09:12.961Z,1.52
2022-08-09T13:11:42.177Z,1.50
2022-08-09T13:16:58.730Z,1.30
2022-08-09T13:20:08.775Z,1.52
2022-08-09T13:22:36.906Z,1.30
2022-08-09T13:25:07.316Z,1.83
2022-08-09T13:27:40.030Z,1.40
2022-08-09T13:30:50.715Z,1.30
2022-08-09T13:33:04.596Z,1.40
2022-08-09T13:35:34.809Z,1.38
2022-08-09T13:38:54.247Z,1.50
2022-08-09T13:41:46.130Z,1.25
2022-08-09T13:43:56.326Z,1.38
2022-08-09T13:47:16.757Z,1.50
2022-08-09T13:49:18.459Z,1.67
2022-08-09T13:51:58.691Z,1.40
2022-08-09T13:54:30.212Z,1.52
2022-08-09T13:56:57.996Z,1.50
2022-08-09T13:59:26.380Z,1.50
2022-08-09T14:02:09.977Z,1.50
2022-08-09T14:04:37.648Z,1.40
2022-08-09T14:07:08.609Z,1.60
2022-08-09T14:09:38.179Z,1.50
2022-08-09T14:12:06.893Z,1.23
2022-08-09T14:14:44.077Z,1.48
2022-08-09T14:17:12.127Z,1.60
2022-08-09T14:19:40.125Z,1.30
2022-08-09T14:22:09.225Z,1.25
2022-08-09T14:24:36.716Z,1.63
2022-08-09T14:27:20.725Z,1.60
2022-08-09T14:30:35.651Z,1.50
2022-08-09T14:32:37.743Z,2.00
2022-08-09T14:35:06.065Z,1.65
2022-08-09T14:38:01.321Z,1.42
2022-08-09T14:40:37.891Z,1.52
2022-08-09T14:43:10.141Z,1.50
2022-08-09T14:47:00.822Z,1.30
2022-08-09T14:48:31.511Z,1.42
2022-08-09T14:51:00.416Z,1.58
2022-08-09T14:53:29.275Z,1.50
2022-08-09T14:55:59.143Z,1.45
2022-08-09T14:58:26.605Z,1.50
2022-08-09T15:00:57.645Z,1.42
2022-08-09T15:03:25.512Z,1.45
2022-08-09T15:05:59.793Z,1.40
2022-08-09T15:08:32.700Z,1.50
2022-08-09T15:13:56.837Z,1.60
2022-08-09T15:16:22.421Z,1.45
2022-08-09T15:18:52.337Z,1.30
2022-08-09T15:21:54.684Z,1.42
2022-08-09T15:24:12.412Z,1.20
2022-08-09T15:26:46.389Z,1.50
2022-08-09T15:30:57.474Z,1.35
2022-08-09T15:32:01.971Z,1.20
2022-08-09T15:34:32.838Z,1.42
2022-08-09T15:37:04.366Z,1.40
2022-08-09T15:42:03.996Z,1.30
2022-08-09T15:44:32.638Z,1.40
2022-08-09T15:49:28.665Z,1.30
2022-08-09T15:52:03.323Z,1.50
2022-08-09T15:54:43.044Z,1.48
2022-08-09T15:57:13.384Z,1.35
2022-08-09T15:59:43.828Z,1.35
2022-08-09T16:02:19.051Z,1.30
2022-08-09T16:04:54.759Z,1.20
2022-08-09T16:07:22.409Z,1.20
2022-08-09T16:10:03.997Z,1.33
2022-08-09T16:12:34.343Z,1.40
2022-08-09T16:15:04.814Z,1.20
2022-08-09T16:17:52.364Z,1.40
2022-08-09T16:20:19.850Z,1.20
2022-08-09T16:22:57.717Z,1.20
2022-08-09T16:25:36.853Z,1.00
2022-08-09T16:28:12.227Z,1.20
2022-08-09T16:30:44.698Z,1.13
2022-08-09T16:33:26.490Z,1.00
2022-08-09T16:35:58.304Z,1.17
2022-08-09T16:38:29.786Z,1.20
2022-08-09T16:40:57.459Z,1.30
2022-08-09T16:43:26.852Z,1.13
2022-08-09T16:45:55.215Z,1.15
2022-08-09T16:48:41.611Z,1.30
2022-08-09T16:51:13.751Z,1.20
2022-08-09T16:54:09.124Z,1.00
2022-08-09T16:56:31.015Z,1.00
2022-08-09T16:59:01.534Z,0.90
2022-08-09T17:01:35.467Z,1.02
2022-08-09T17:06:33.394Z,0.80
2022-08-09T17:09:43.629Z,1.20
2022-08-09T17:11:52.565Z,1.30
2022-08-09T17:14:26.996Z,1.23
2022-08-09T17:19:23.586Z,1.33
2022-08-09T17:21:55.451Z,1.10
2022-08-09T17:24:30.617Z,1.45
2022-08-09T17:26:58.742Z,1.55
2022-08-09T17:29:31.880Z,1.30
2022-08-09T17:32:08.633Z,1.13
2022-08-09T17:35:01.081Z,1.77
2022-08-09T17:37:30.741Z,1.38
2022-08-09T17:40:18.543Z,1.42
2022-08-09T17:42:47.070Z,1.20
2022-08-09T17:45:37.375Z,1.20
2022-08-09T17:48:03.604Z,1.30
2022-08-09T17:50:36.841Z,1.38
2022-08-09T17:53:19.657Z,1.20
2022-08-09T17:55:54.194Z,1.13
2022-08-09T17:58:26.908Z,1.33
2022-08-09T18:00:56.531Z,2.38
2022-08-09T18:03:30.230Z,1.85
2022-08-09T18:06:00.976Z,1.75
2022-08-09T18:08:29.475Z,1.90
2022-08-09T18:11:02.020Z,1.50
2022-08-09T18:13:39.292Z,1.17
2022-08-09T18:16:29.562Z,1.33
2022-08-09T18:19:03.553Z,1.42
2022-08-09T18:21:31.854Z,1.95
2022-08-09T18:24:14.473Z,1.70
2022-08-09T18:26:46.457Z,1.70
2022-08-09T18:30:42.269Z,1.30
2022-08-09T18:32:05.401Z,1.35
2022-08-09T18:34:35.658Z,1.63
2022-08-09T18:37:03.746Z,1.50
2022-08-09T18:39:32.741Z,3.88
2022-08-09T18:42:01.019Z,1.70
2022-08-09T18:44:29.802Z,1.70
2022-08-09T18:47:04.946Z,1.30
2022-08-09T18:49:41.407Z,1.58
2022-08-09T18:52:15.655Z,2.25
2022-08-09T18:54:52.470Z,1.67
2022-08-09T18:57:22.290Z,1.63
2022-08-09T18:59:51.969Z,1.60
2022-08-09T19:02:32.338Z,1.42
2022-08-09T19:05:04.217Z,1.30
2022-08-09T19:07:59.256Z,1.35
2022-08-09T19:10:36.968Z,1.55
2022-08-09T19:13:20.051Z,1.15
2022-08-09T19:15:51.237Z,1.23
2022-08-09T19:18:33.838Z,1.55
2022-08-09T19:21:09.579Z,1.45
2022-08-09T19:24:32.300Z,1.60
2022-08-09T19:26:29.528Z,1.77
2022-08-09T19:29:01.917Z,1.60
2022-08-09T19:31:30.700Z,1.45
2022-08-09T19:34:21.205Z,1.67
2022-08-09T19:36:51.497Z,1.65
2022-08-09T19:39:20.762Z,1.48
2022-08-09T19:41:57.175Z,1.42
2022-08-09T19:44:25.283Z,1.45
2022-08-09T19:46:53.762Z,1.38
2022-08-09T19:50:08.596Z,1.48
2022-08-09T19:52:12.300Z,1.40
2022-08-09T19:54:40.129Z,1.45
2022-08-09T19:57:08.485Z,2.17
2022-08-09T19:59:58.932Z,1.70
2022-08-09T20:04:12.610Z,1.80
2022-08-09T20:05:14.807Z,1.55
2022-08-09T20:07:59.738Z,1.60
2022-08-09T20:10:30.598Z,1.70
2022-08-09T20:13:02.921Z,2.80
2022-08-09T20:16:34.580Z,1.65
2022-08-09T20:18:19.595Z,1.70
2022-08-09T20:20:47.581Z,1.70
2022-08-09T20:23:22.924Z,1.42
2022-08-09T20:25:53.450Z,2.03
2022-08-09T20:28:27.753Z,1.60
2022-08-09T20:31:04.545Z,1.42
2022-08-09T20:33:38.874Z,1.50
2022-08-09T20:36:09.212Z,1.90
2022-08-09T20:39:00.287Z,1.95
2022-08-09T20:41:35.248Z,1.48
2022-08-09T20:44:10.206Z,1.70
2022-08-09T20:46:44.473Z,1.38
2022-08-09T20:49:12.787Z,1.73
2022-08-09T20:51:41.548Z,1.50
2022-08-09T20:54:16.674Z,1.45
2022-08-09T20:56:46.700Z,2.35
2022-08-09T20:59:16.811Z,1.70
2022-08-09T21:01:50.522Z,1.30
2022-08-09T21:05:50.982Z,1.70
2022-08-09T21:07:12.736Z,1.90
2022-08-09T21:09:45.610Z,1.60
2022-08-09T21:15:13.079Z,1.83
2022-08-09T21:18:10.942Z,1.55
2022-08-09T21:20:30.219Z,1.30
2022-08-09T21:22:58.363Z,1.30
2022-08-09T21:25:55.962Z,1.50
2022-08-09T21:28:33.329Z,1.50
2022-08-09T21:31:13.723Z,2.45
2022-08-09T21:33:46.010Z,1.33
2022-08-09T21:36:18.981Z,1.95
2022-08-09T21:38:56.765Z,1.60
2022-08-09T21:42:05.814Z,1.70
2022-08-09T21:44:15.254Z,1.30
2022-08-09T21:47:00.150Z,1.60
2022-08-09T21:49:29.247Z,1.20
2022-08-09T21:52:16.329Z,1.70
2022-08-09T21:54:46.304Z,1.25
2022-08-09T21:57:37.563Z,1.35
2022-08-09T22:00:07.303Z,1.30
2022-08-09T22:02:40.000Z,1.00
2022-08-09T22:05:17.099Z,1.50
2022-08-09T22:07:52.276Z,1.40
2022-08-09T22:10:22.821Z,1.85
2022-08-09T22:12:52.449Z,1.30
2022-08-09T22:15:20.616Z,1.30
2022-08-09T22:17:50.824Z,1.23
2022-08-09T22:20:21.955Z,1.30
2022-08-09T22:22:55.348Z,1.58
2022-08-09T22:26:08.563Z,1.40
2022-08-09T22:28:12.529Z,1.30
2022-08-09T22:30:41.904Z,1.40
2022-08-09T22:33:17.208Z,1.70
2022-08-09T22:36:02.229Z,1.80
2022-08-09T22:38:31.069Z,2.13
2022-08-09T22:40:59.206Z,2.08
2022-08-09T22:44:01.804Z,1.70
2022-08-09T22:48:10.962Z,1.63
2022-08-09T22:49:10.109Z,1.40
2022-08-09T22:51:40.170Z,1.25
2022-08-09T22:54:21.234Z,1.35
2022-08-09T22:56:54.587Z,1.90
2022-08-09T22:59:55.400Z,1.38
2022-08-09T23:02:15.159Z,1.40
2022-08-09T23:04:54.217Z,1.58
2022-08-09T23:08:22.492Z,1.55
2022-08-09T23:10:27.219Z,1.52
2022-08-09T23:12:54.702Z,1.95
2022-08-09T23:15:23.570Z,1.27
2022-08-09T23:17:51.107Z,1.42
2022-08-09T23:20:18.650Z,1.30
2022-08-09T23:22:46.141Z,1.60
2022-08-09T23:25:13.824Z,1.55
2022-08-09T23:28:00.550Z,1.90
2022-08-09T23:30:31.365Z,1.60
2022-08-09T23:33:00.001Z,2.33
2022-08-09T23:35:27.554Z,1.92
2022-08-09T23:37:55.059Z,1.40
2022-08-09T23:40:22.824Z,1.95
2022-08-09T23:42:50.318Z,1.80
2022-08-09T23:45:37.084Z,1.60
2022-08-09T23:48:09.072Z,1.63
2022-08-09T23:50:36.928Z,1.42
2022-08-09T23:53:04.540Z,1.73
2022-08-09T23:55:33.024Z,1.70
2022-08-09T23:58:10.442Z,1.60
